sensor_id;sensor_type;location;lat;lon;timestamp;pressure;altitude;pressure_sealevel;temperature;humidity
7050;BME280;22263;52.260;10.548;2023-06-04T00:00:48;101021.44;;;14.56;75.99
7050;BME280;22263;52.260;10.548;2023-06-04T00:03:18;101008.72;;;14.62;76.13
7050;BME280;22263;52.260;10.548;2023-06-04T00:05:48;101004.72;;;14.63;78.23
7050;BME280;22263;52.260;10.548;2023-06-04T00:08:18;101011.06;;;14.50;79.52
7050;BME280;22263;52.260;10.548;2023-06-04T00:10:48;101006.66;;;14.38;82.70
7050;BME280;22263;52.260;10.548;2023-06-04T00:13:18;101011.34;;;14.23;86.37
7050;BME280;22263;52.260;10.548;2023-06-04T00:15:50;101016.50;;;14.25;86.70
7050;BME280;22263;52.260;10.548;2023-06-04T00:18:20;101008.13;;;14.21;88.00
7050;BME280;22263;52.260;10.548;2023-06-04T00:20:52;101012.47;;;14.12;88.42
7050;BME280;22263;52.260;10.548;2023-06-04T00:23:22;101018.44;;;14.14;88.99
7050;BME280;22263;52.260;10.548;2023-06-04T00:25:52;101010.03;;;14.03;89.53
7050;BME280;22263;52.260;10.548;2023-06-04T00:28:22;101016.41;;;14.07;88.48
7050;BME280;22263;52.260;10.548;2023-06-04T00:30:54;101026.34;;;14.05;85.55
7050;BME280;22263;52.260;10.548;2023-06-04T00:33:24;101029.50;;;14.00;83.86
7050;BME280;22263;52.260;10.548;2023-06-04T00:35:53;101019.63;;;14.13;81.83
7050;BME280;22263;52.260;10.548;2023-06-04T00:38:23;101029.16;;;14.12;81.19
7050;BME280;22263;52.260;10.548;2023-06-04T00:40:54;101020.34;;;13.95;81.90
7050;BME280;22263;52.260;10.548;2023-06-04T00:43:23;101024.72;;;14.00;79.98
7050;BME280;22263;52.260;10.548;2023-06-04T00:46:00;101024.38;;;14.12;77.80
7050;BME280;22263;52.260;10.548;2023-06-04T00:48:30;101026.31;;;14.01;77.21
7050;BME280;22263;52.260;10.548;2023-06-04T00:51:00;101024.31;;;13.98;75.49
7050;BME280;22263;52.260;10.548;2023-06-04T00:53:30;101026.28;;;13.97;74.94
7050;BME280;22263;52.260;10.548;2023-06-04T00:56:00;101020.38;;;14.06;75.21
7050;BME280;22263;52.260;10.548;2023-06-04T00:58:33;101033.06;;;14.00;77.93
7050;BME280;22263;52.260;10.548;2023-06-04T01:01:08;101035.00;;;13.96;77.54
7050;BME280;22263;52.260;10.548;2023-06-04T01:03:42;101028.63;;;13.88;78.64
7050;BME280;22263;52.260;10.548;2023-06-04T01:06:21;101031.75;;;13.80;79.32
7050;BME280;22263;52.260;10.548;2023-06-04T01:08:53;101032.13;;;13.82;77.97
7050;BME280;22263;52.260;10.548;2023-06-04T01:11:34;101019.41;;;13.77;78.36
7050;BME280;22263;52.260;10.548;2023-06-04T01:14:05;101021.72;;;13.65;81.43
7050;BME280;22263;52.260;10.548;2023-06-04T01:16:39;101018.47;;;13.56;83.73
7050;BME280;22263;52.260;10.548;2023-06-04T01:19:30;101024.03;;;13.59;84.93
7050;BME280;22263;52.260;10.548;2023-06-04T01:22:13;101014.53;;;13.60;85.45
7050;BME280;22263;52.260;10.548;2023-06-04T01:24:52;101016.13;;;13.61;85.35
7050;BME280;22263;52.260;10.548;2023-06-04T01:27:23;101017.69;;;13.59;86.08
7050;BME280;22263;52.260;10.548;2023-06-04T01:29:53;101012.94;;;13.59;87.50
7050;BME280;22263;52.260;10.548;2023-06-04T01:32:26;101005.31;;;13.52;88.04
7050;BME280;22263;52.260;10.548;2023-06-04T01:34:56;101006.94;;;13.53;92.18
7050;BME280;22263;52.260;10.548;2023-06-04T01:37:26;101003.66;;;13.37;94.17
7050;BME280;22263;52.260;10.548;2023-06-04T01:39:56;101003.66;;;13.37;95.47
7050;BME280;22263;52.260;10.548;2023-06-04T01:42:26;101002.41;;;13.31;96.66
7050;BME280;22263;52.260;10.548;2023-06-04T01:44:55;101008.22;;;13.16;100.00
7050;BME280;22263;52.260;10.548;2023-06-04T01:47:28;101005.50;;;13.23;100.00
7050;BME280;22263;52.260;10.548;2023-06-04T01:49:57;100999.19;;;13.26;100.00
7050;BME280;22263;52.260;10.548;2023-06-04T01:52:27;101004.72;;;13.26;100.00
7050;BME280;22263;52.260;10.548;2023-06-04T01:54:57;100999.50;;;13.17;100.00
7050;BME280;22263;52.260;10.548;2023-06-04T01:57:27;100999.06;;;13.15;100.00
7050;BME280;22263;52.260;10.548;2023-06-04T01:59:56;101003.03;;;13.14;100.00
7050;BME280;22263;52.260;10.548;2023-06-04T02:02:29;100995.78;;;13.02;100.00
7050;BME280;22263;52.260;10.548;2023-06-04T02:04:59;100997.31;;;13.00;100.00
7050;BME280;22263;52.260;10.548;2023-06-04T02:07:28;100995.75;;;12.99;100.00
7050;BME280;22263;52.260;10.548;2023-06-04T02:09:58;101001.19;;;12.88;100.00
7050;BME280;22263;52.260;10.548;2023-06-04T02:12:28;101005.13;;;12.87;100.00
7050;BME280;22263;52.260;10.548;2023-06-04T02:14:58;101003.34;;;12.68;100.00
7050;BME280;22263;52.260;10.548;2023-06-04T02:17:30;100997.91;;;12.76;100.00
7050;BME280;22263;52.260;10.548;2023-06-04T02:20:06;101001.88;;;12.78;100.00
7050;BME280;22263;52.260;10.548;2023-06-04T02:22:36;101000.25;;;12.74;100.00
7050;BME280;22263;52.260;10.548;2023-06-04T02:25:07;101000.16;;;12.66;100.00
7050;BME280;22263;52.260;10.548;2023-06-04T02:27:38;100998.66;;;12.73;100.00
7050;BME280;22263;52.260;10.548;2023-06-04T02:30:09;101005.81;;;12.77;100.00
7050;BME280;22263;52.260;10.548;2023-06-04T02:32:41;101001.69;;;12.60;100.00
7050;BME280;22263;52.260;10.548;2023-06-04T02:35:18;100997.31;;;12.59;100.00
7050;BME280;22263;52.260;10.548;2023-06-04T02:37:48;100996.16;;;12.60;100.00
7050;BME280;22263;52.260;10.548;2023-06-04T02:40:17;100996.63;;;12.66;100.00
7050;BME280;22263;52.260;10.548;2023-06-04T02:42:47;100992.16;;;12.61;100.00
7050;BME280;22263;52.260;10.548;2023-06-04T02:45:17;100998.09;;;12.56;100.00
7050;BME280;22263;52.260;10.548;2023-06-04T02:47:49;100997.97;;;12.46;100.00
7050;BME280;22263;52.260;10.548;2023-06-04T02:50:19;101000.28;;;12.40;100.00
7050;BME280;22263;52.260;10.548;2023-06-04T02:52:49;101011.72;;;12.39;100.00
7050;BME280;22263;52.260;10.548;2023-06-04T02:55:19;101000.56;;;12.32;100.00
7050;BME280;22263;52.260;10.548;2023-06-04T02:57:49;101002.25;;;12.10;100.00
7050;BME280;22263;52.260;10.548;2023-06-04T03:00:19;101004.66;;;12.11;100.00
7050;BME280;22263;52.260;10.548;2023-06-04T03:02:52;101007.31;;;12.04;100.00
7050;BME280;22263;52.260;10.548;2023-06-04T03:05:29;101004.19;;;12.06;100.00
7050;BME280;22263;52.260;10.548;2023-06-04T03:08:01;101002.97;;;12.03;100.00
7050;BME280;22263;52.260;10.548;2023-06-04T03:10:31;101003.34;;;12.02;100.00
7050;BME280;22263;52.260;10.548;2023-06-04T03:13:01;101006.44;;;11.97;100.00
7050;BME280;22263;52.260;10.548;2023-06-04T03:15:31;101011.88;;;11.90;100.00
7050;BME280;22263;52.260;10.548;2023-06-04T03:18:03;101018.19;;;11.87;100.00
7050;BME280;22263;52.260;10.548;2023-06-04T03:20:33;101006.25;;;11.83;100.00
7050;BME280;22263;52.260;10.548;2023-06-04T03:23:05;101015.53;;;11.94;100.00
7050;BME280;22263;52.260;10.548;2023-06-04T03:25:35;101004.31;;;11.87;100.00
7050;BME280;22263;52.260;10.548;2023-06-04T03:28:05;101003.97;;;11.88;100.00
7050;BME280;22263;52.260;10.548;2023-06-04T03:30:35;101006.28;;;11.86;100.00
7050;BME280;22263;52.260;10.548;2023-06-04T03:33:09;101001.41;;;11.76;100.00
7050;BME280;22263;52.260;10.548;2023-06-04T03:35:40;101003.00;;;11.77;100.00
7050;BME280;22263;52.260;10.548;2023-06-04T03:38:09;101004.56;;;11.74;100.00
7050;BME280;22263;52.260;10.548;2023-06-04T03:40:39;101007.78;;;11.80;100.00
7050;BME280;22263;52.260;10.548;2023-06-04T03:43:10;101007.06;;;11.83;100.00
7050;BME280;22263;52.260;10.548;2023-06-04T03:45:41;101015.03;;;11.88;100.00
7050;BME280;22263;52.260;10.548;2023-06-04T03:48:14;101009.53;;;11.92;100.00
7050;BME280;22263;52.260;10.548;2023-06-04T03:50:44;101008.78;;;11.95;100.00
7050;BME280;22263;52.260;10.548;2023-06-04T03:53:16;101010.38;;;11.96;100.00
7050;BME280;22263;52.260;10.548;2023-06-04T03:55:47;100993.03;;;11.99;100.00
7050;BME280;22263;52.260;10.548;2023-06-04T03:58:16;101006.91;;;12.02;100.00
7050;BME280;22263;52.260;10.548;2023-06-04T04:00:50;101019.13;;;11.98;100.00
7050;BME280;22263;52.260;10.548;2023-06-04T04:03:22;101015.25;;;12.02;100.00
7050;BME280;22263;52.260;10.548;2023-06-04T04:05:53;101006.88;;;11.99;100.00
7050;BME280;22263;52.260;10.548;2023-06-04T04:08:23;101011.22;;;12.00;100.00
7050;BME280;22263;52.260;10.548;2023-06-04T04:10:58;101025.38;;;11.91;100.00
7050;BME280;22263;52.260;10.548;2023-06-04T04:13:28;101022.59;;;11.91;100.00
7050;BME280;22263;52.260;10.548;2023-06-04T04:15:58;101021.06;;;11.94;100.00
7050;BME280;22263;52.260;10.548;2023-06-04T04:18:32;101019.06;;;11.94;100.00
7050;BME280;22263;52.260;10.548;2023-06-04T04:21:04;101024.16;;;11.89;100.00
7050;BME280;22263;52.260;10.548;2023-06-04T04:23:34;101029.25;;;11.87;100.00
7050;BME280;22263;52.260;10.548;2023-06-04T04:26:04;101026.28;;;11.99;100.00
7050;BME280;22263;52.260;10.548;2023-06-04T04:28:34;101021.25;;;12.08;100.00
7050;BME280;22263;52.260;10.548;2023-06-04T04:31:04;101023.28;;;12.11;100.00
7050;BME280;22263;52.260;10.548;2023-06-04T04:33:39;101024.94;;;12.19;100.00
7050;BME280;22263;52.260;10.548;2023-06-04T04:36:12;101022.78;;;12.05;100.00
7050;BME280;22263;52.260;10.548;2023-06-04T04:38:46;101019.22;;;12.05;100.00
7050;BME280;22263;52.260;10.548;2023-06-04T04:41:26;101022.09;;;12.12;100.00
7050;BME280;22263;52.260;10.548;2023-06-04T04:44:03;101026.22;;;12.25;100.00
7050;BME280;22263;52.260;10.548;2023-06-04T04:46:33;101024.75;;;12.35;100.00
7050;BME280;22263;52.260;10.548;2023-06-04T04:49:05;101015.78;;;12.45;100.00
7050;BME280;22263;52.260;10.548;2023-06-04T04:51:35;101026.16;;;12.51;100.00
7050;BME280;22263;52.260;10.548;2023-06-04T04:54:05;101027.69;;;12.45;100.00
7050;BME280;22263;52.260;10.548;2023-06-04T04:56:35;101022.63;;;12.54;100.00
7050;BME280;22263;52.260;10.548;2023-06-04T04:59:05;101031.91;;;12.69;100.00
7050;BME280;22263;52.260;10.548;2023-06-04T05:01:35;101026.50;;;12.83;100.00
7050;BME280;22263;52.260;10.548;2023-06-04T05:04:08;101030.63;;;13.00;100.00
7050;BME280;22263;52.260;10.548;2023-06-04T05:06:39;101027.13;;;13.03;100.00
7050;BME280;22263;52.260;10.548;2023-06-04T05:09:10;101033.19;;;13.12;100.00
7050;BME280;22263;52.260;10.548;2023-06-04T05:11:39;101029.34;;;13.27;100.00
7050;BME280;22263;52.260;10.548;2023-06-04T05:14:09;101026.19;;;13.29;100.00
7050;BME280;22263;52.260;10.548;2023-06-04T05:16:40;101032.97;;;13.31;100.00
7050;BME280;22263;52.260;10.548;2023-06-04T05:19:15;101036.31;;;13.51;100.00
7050;BME280;22263;52.260;10.548;2023-06-04T05:21:46;101035.94;;;13.56;100.00
7050;BME280;22263;52.260;10.548;2023-06-04T05:24:16;101033.66;;;13.69;97.17
7050;BME280;22263;52.260;10.548;2023-06-04T05:26:46;101040.88;;;13.80;95.91
7050;BME280;22263;52.260;10.548;2023-06-04T05:29:19;101035.44;;;13.98;95.20
7050;BME280;22263;52.260;10.548;2023-06-04T05:31:49;101038.28;;;14.05;96.10
7050;BME280;22263;52.260;10.548;2023-06-04T05:34:24;101049.88;;;14.25;95.76
7050;BME280;22263;52.260;10.548;2023-06-04T05:36:54;101040.78;;;14.31;95.02
7050;BME280;22263;52.260;10.548;2023-06-04T05:39:25;101032.59;;;14.67;95.55
7050;BME280;22263;52.260;10.548;2023-06-04T05:42:01;101042.19;;;14.76;93.29
7050;BME280;22263;52.260;10.548;2023-06-04T05:44:33;101039.94;;;14.24;91.35
7050;BME280;22263;52.260;10.548;2023-06-04T05:47:05;101046.88;;;14.55;92.23
7050;BME280;22263;52.260;10.548;2023-06-04T05:49:38;101043.81;;;14.95;92.80
7050;BME280;22263;52.260;10.548;2023-06-04T05:52:09;101045.84;;;15.34;90.38
7050;BME280;22263;52.260;10.548;2023-06-04T05:54:40;101041.47;;;15.18;88.67
7050;BME280;22263;52.260;10.548;2023-06-04T05:57:10;101037.84;;;16.06;86.93
7050;BME280;22263;52.260;10.548;2023-06-04T05:59:40;101046.53;;;16.33;82.12
7050;BME280;22263;52.260;10.548;2023-06-04T06:02:13;101050.94;;;16.34;76.03
7050;BME280;22263;52.260;10.548;2023-06-04T06:04:46;101048.97;;;16.21;75.51
7050;BME280;22263;52.260;10.548;2023-06-04T06:07:16;101043.72;;;16.37;76.58
7050;BME280;22263;52.260;10.548;2023-06-04T06:09:46;101040.09;;;16.47;78.08
7050;BME280;22263;52.260;10.548;2023-06-04T06:12:17;101045.63;;;16.68;74.30
7050;BME280;22263;52.260;10.548;2023-06-04T06:14:46;101043.75;;;17.13;72.47
7050;BME280;22263;52.260;10.548;2023-06-04T06:17:16;101041.63;;;17.35;70.77
7050;BME280;22263;52.260;10.548;2023-06-04T06:19:49;101043.84;;;17.54;66.45
7050;BME280;22263;52.260;10.548;2023-06-04T06:22:19;101050.63;;;17.02;63.46
7050;BME280;22263;52.260;10.548;2023-06-04T06:24:49;101058.22;;;17.60;63.12
7050;BME280;22263;52.260;10.548;2023-06-04T06:27:19;101053.44;;;17.53;59.63
7050;BME280;22263;52.260;10.548;2023-06-04T06:29:49;101051.63;;;17.80;60.13
7050;BME280;22263;52.260;10.548;2023-06-04T06:32:18;101052.13;;;18.09;54.89
7050;BME280;22263;52.260;10.548;2023-06-04T06:34:51;101044.81;;;18.19;53.76
7050;BME280;22263;52.260;10.548;2023-06-04T06:37:20;101054.44;;;18.18;53.80
7050;BME280;22263;52.260;10.548;2023-06-04T06:39:50;101049.34;;;18.43;53.18
7050;BME280;22263;52.260;10.548;2023-06-04T06:42:20;101056.63;;;18.71;51.28
7050;BME280;22263;52.260;10.548;2023-06-04T06:44:51;101054.94;;;19.07;48.68
7050;BME280;22263;52.260;10.548;2023-06-04T06:47:21;101054.50;;;19.36;47.50
7050;BME280;22263;52.260;10.548;2023-06-04T06:49:54;101058.63;;;19.54;46.18
7050;BME280;22263;52.260;10.548;2023-06-04T06:52:24;101053.75;;;19.58;45.94
7050;BME280;22263;52.260;10.548;2023-06-04T06:54:53;101061.09;;;19.76;46.87
7050;BME280;22263;52.260;10.548;2023-06-04T06:57:23;101054.47;;;19.86;45.31
7050;BME280;22263;52.260;10.548;2023-06-04T06:59:53;101059.50;;;19.51;47.44
7050;BME280;22263;52.260;10.548;2023-06-04T07:02:23;101066.75;;;20.15;46.07
7050;BME280;22263;52.260;10.548;2023-06-04T07:04:55;101061.56;;;20.37;45.99
7050;BME280;22263;52.260;10.548;2023-06-04T07:07:26;101057.81;;;20.43;44.09
7050;BME280;22263;52.260;10.548;2023-06-04T07:09:56;101061.56;;;20.37;43.59
7050;BME280;22263;52.260;10.548;2023-06-04T07:12:26;101063.53;;;20.96;43.36
7050;BME280;22263;52.260;10.548;2023-06-04T07:14:56;101066.16;;;21.22;42.77
7050;BME280;22263;52.260;10.548;2023-06-04T07:17:26;101058.44;;;21.26;41.43
7050;BME280;22263;52.260;10.548;2023-06-04T07:19:58;101061.88;;;21.66;41.13
7050;BME280;22263;52.260;10.548;2023-06-04T07:22:28;101056.94;;;21.87;39.97
7050;BME280;22263;52.260;10.548;2023-06-04T07:24:58;101059.50;;;21.65;40.25
7050;BME280;22263;52.260;10.548;2023-06-04T07:27:28;101053.41;;;21.50;39.73
7050;BME280;22263;52.260;10.548;2023-06-04T07:29:57;101061.25;;;21.91;40.50
7050;BME280;22263;52.260;10.548;2023-06-04T07:32:27;101057.72;;;22.03;40.85
7050;BME280;22263;52.260;10.548;2023-06-04T07:35:00;101055.47;;;22.11;39.28
7050;BME280;22263;52.260;10.548;2023-06-04T07:37:29;101043.09;;;22.50;39.01
7050;BME280;22263;52.260;10.548;2023-06-04T07:39:59;101048.69;;;22.66;39.60
7050;BME280;22263;52.260;10.548;2023-06-04T07:42:30;101051.78;;;22.72;38.71
7050;BME280;22263;52.260;10.548;2023-06-04T07:45:00;101054.41;;;23.04;39.19
7050;BME280;22263;52.260;10.548;2023-06-04T07:47:30;101050.66;;;22.82;39.12
7050;BME280;22263;52.260;10.548;2023-06-04T07:50:02;101053.63;;;23.16;39.11
7050;BME280;22263;52.260;10.548;2023-06-04T07:52:33;101048.31;;;23.56;37.71
7050;BME280;22263;52.260;10.548;2023-06-04T07:55:03;101061.06;;;23.35;37.26
7050;BME280;22263;52.260;10.548;2023-06-04T07:57:33;101060.38;;;22.93;37.99
7050;BME280;22263;52.260;10.548;2023-06-04T08:00:03;101059.13;;;22.94;37.84
7050;BME280;22263;52.260;10.548;2023-06-04T08:02:37;101061.63;;;23.43;37.00
7050;BME280;22263;52.260;10.548;2023-06-04T08:05:10;101060.75;;;23.21;36.51
7050;BME280;22263;52.260;10.548;2023-06-04T08:07:40;101064.91;;;23.29;36.17
7050;BME280;22263;52.260;10.548;2023-06-04T08:10:10;101066.25;;;22.99;36.84
7050;BME280;22263;52.260;10.548;2023-06-04T08:12:40;101066.84;;;23.07;36.83
7050;BME280;22263;52.260;10.548;2023-06-04T08:15:10;101069.25;;;22.79;37.15
7050;BME280;22263;52.260;10.548;2023-06-04T08:17:40;101072.34;;;22.97;37.03
7050;BME280;22263;52.260;10.548;2023-06-04T08:20:12;101068.88;;;23.06;37.41
7050;BME280;22263;52.260;10.548;2023-06-04T08:22:42;101065.00;;;23.76;36.61
7050;BME280;22263;52.260;10.548;2023-06-04T08:25:12;101067.88;;;24.32;34.09
7050;BME280;22263;52.260;10.548;2023-06-04T08:27:43;101061.72;;;24.12;33.02
7050;BME280;22263;52.260;10.548;2023-06-04T08:30:13;101058.75;;;24.93;33.10
7050;BME280;22263;52.260;10.548;2023-06-04T08:32:43;101072.22;;;24.67;32.21
7050;BME280;22263;52.260;10.548;2023-06-04T08:35:15;101072.81;;;24.62;32.67
7050;BME280;22263;52.260;10.548;2023-06-04T08:37:45;101071.81;;;25.31;32.16
7050;BME280;22263;52.260;10.548;2023-06-04T08:40:15;101062.34;;;25.74;31.88
7050;BME280;22263;52.260;10.548;2023-06-04T08:42:46;101065.44;;;25.57;32.85
7050;BME280;22263;52.260;10.548;2023-06-04T08:45:17;101069.28;;;27.00;31.28
7050;BME280;22263;52.260;10.548;2023-06-04T08:47:50;101074.28;;;27.05;30.76
7050;BME280;22263;52.260;10.548;2023-06-04T08:50:24;101067.75;;;27.23;30.65
7050;BME280;22263;52.260;10.548;2023-06-04T08:52:55;101078.91;;;26.94;30.51
7050;BME280;22263;52.260;10.548;2023-06-04T08:55:26;101071.72;;;26.29;31.40
7050;BME280;22263;52.260;10.548;2023-06-04T08:57:56;101071.13;;;25.57;32.32
7050;BME280;22263;52.260;10.548;2023-06-04T09:00:26;101070.88;;;25.92;32.08
7050;BME280;22263;52.260;10.548;2023-06-04T09:02:56;101070.38;;;26.94;32.00
7050;BME280;22263;52.260;10.548;2023-06-04T09:05:29;101059.81;;;28.31;29.52
7050;BME280;22263;52.260;10.548;2023-06-04T09:08:00;101059.84;;;28.46;29.21
7050;BME280;22263;52.260;10.548;2023-06-04T09:10:31;101069.78;;;28.12;28.71
7050;BME280;22263;52.260;10.548;2023-06-04T09:13:02;101064.56;;;28.10;28.85
7050;BME280;22263;52.260;10.548;2023-06-04T09:15:33;101064.63;;;30.18;27.00
7050;BME280;22263;52.260;10.548;2023-06-04T09:18:02;101067.66;;;30.81;26.59
7050;BME280;22263;52.260;10.548;2023-06-04T09:20:37;101063.94;;;29.82;26.66
7050;BME280;22263;52.260;10.548;2023-06-04T09:23:14;101075.66;;;27.61;28.23
7050;BME280;22263;52.260;10.548;2023-06-04T09:25:44;101075.09;;;27.39;28.60
7050;BME280;22263;52.260;10.548;2023-06-04T09:28:14;101070.38;;;27.68;29.27
7050;BME280;22263;52.260;10.548;2023-06-04T09:30:50;101063.63;;;28.81;28.70
7050;BME280;22263;52.260;10.548;2023-06-04T09:33:21;101056.31;;;29.39;28.22
7050;BME280;22263;52.260;10.548;2023-06-04T09:35:58;101049.53;;;31.15;26.27
7050;BME280;22263;52.260;10.548;2023-06-04T09:38:34;101059.41;;;31.14;26.27
7050;BME280;22263;52.260;10.548;2023-06-04T09:41:11;101062.09;;;28.42;28.22
7050;BME280;22263;52.260;10.548;2023-06-04T09:43:41;101058.19;;;28.54;28.81
7050;BME280;22263;52.260;10.548;2023-06-04T09:46:12;101059.75;;;30.44;27.01
7050;BME280;22263;52.260;10.548;2023-06-04T09:48:44;101072.75;;;28.17;27.94
7050;BME280;22263;52.260;10.548;2023-06-04T09:51:16;101061.53;;;28.67;26.87
7050;BME280;22263;52.260;10.548;2023-06-04T09:53:53;101059.38;;;30.31;26.27
7050;BME280;22263;52.260;10.548;2023-06-04T09:56:23;101053.91;;;31.84;25.46
7050;BME280;22263;52.260;10.548;2023-06-04T09:58:54;101067.13;;;27.85;27.26
7050;BME280;22263;52.260;10.548;2023-06-04T10:01:26;101056.88;;;30.18;26.12
7050;BME280;22263;52.260;10.548;2023-06-04T10:03:58;101048.22;;;30.85;25.77
7050;BME280;22263;52.260;10.548;2023-06-04T10:06:35;101059.38;;;30.83;25.43
7050;BME280;22263;52.260;10.548;2023-06-04T10:09:07;101061.06;;;29.82;26.37
7050;BME280;22263;52.260;10.548;2023-06-04T10:11:40;101062.00;;;29.94;26.28
7050;BME280;22263;52.260;10.548;2023-06-04T10:14:16;101054.34;;;30.72;25.51
7050;BME280;22263;52.260;10.548;2023-06-04T10:16:47;101057.44;;;30.22;26.58
7050;BME280;22263;52.260;10.548;2023-06-04T10:19:18;101052.66;;;31.54;25.66
7050;BME280;22263;52.260;10.548;2023-06-04T10:21:52;101054.31;;;32.25;25.24
7050;BME280;22263;52.260;10.548;2023-06-04T10:24:22;101057.50;;;28.30;27.70
7050;BME280;22263;52.260;10.548;2023-06-04T10:26:54;101056.50;;;29.70;26.42
7050;BME280;22263;52.260;10.548;2023-06-04T10:29:25;101057.88;;;29.95;27.08
7050;BME280;22263;52.260;10.548;2023-06-04T10:31:55;101055.53;;;30.60;26.55
7050;BME280;22263;52.260;10.548;2023-06-04T10:34:26;101049.06;;;30.91;26.29
7050;BME280;22263;52.260;10.548;2023-06-04T10:36:59;101044.97;;;30.46;25.93
7050;BME280;22263;52.260;10.548;2023-06-04T10:39:30;101046.59;;;28.28;27.74
7050;BME280;22263;52.260;10.548;2023-06-04T10:42:01;101053.19;;;28.63;28.32
7050;BME280;22263;52.260;10.548;2023-06-04T10:44:42;101053.63;;;31.08;26.18
7050;BME280;22263;52.260;10.548;2023-06-04T10:47:18;101054.72;;;31.11;25.66
7050;BME280;22263;52.260;10.548;2023-06-04T10:49:50;101048.91;;;30.48;26.51
7050;BME280;22263;52.260;10.548;2023-06-04T10:52:22;101045.84;;;29.51;26.83
7050;BME280;22263;52.260;10.548;2023-06-04T10:55:03;101050.09;;;29.26;27.09
7050;BME280;22263;52.260;10.548;2023-06-04T10:57:33;101044.81;;;29.19;26.90
7050;BME280;22263;52.260;10.548;2023-06-04T11:00:04;101051.25;;;28.99;27.38
7050;BME280;22263;52.260;10.548;2023-06-04T11:02:42;101040.97;;;29.22;27.41
7050;BME280;22263;52.260;10.548;2023-06-04T11:05:18;101046.31;;;30.04;27.17
7050;BME280;22263;52.260;10.548;2023-06-04T11:07:51;101040.53;;;30.19;26.47
7050;BME280;22263;52.260;10.548;2023-06-04T11:10:31;101045.16;;;29.06;27.24
7050;BME280;22263;52.260;10.548;2023-06-04T11:13:02;101048.56;;;28.37;27.83
7050;BME280;22263;52.260;10.548;2023-06-04T11:15:40;101037.91;;;28.76;27.20
7050;BME280;22263;52.260;10.548;2023-06-04T11:18:14;101042.56;;;29.23;27.14
7050;BME280;22263;52.260;10.548;2023-06-04T11:20:45;101026.88;;;30.49;26.70
7050;BME280;22263;52.260;10.548;2023-06-04T11:23:18;101041.94;;;30.29;26.65
7050;BME280;22263;52.260;10.548;2023-06-04T11:25:52;101031.78;;;30.48;26.44
7050;BME280;22263;52.260;10.548;2023-06-04T11:28:22;101034.44;;;31.94;25.59
7050;BME280;22263;52.260;10.548;2023-06-04T11:30:58;101028.06;;;32.43;25.37
7050;BME280;22263;52.260;10.548;2023-06-04T11:33:30;101039.78;;;30.44;26.48
7050;BME280;22263;52.260;10.548;2023-06-04T11:35:59;101031.22;;;31.81;25.51
7050;BME280;22263;52.260;10.548;2023-06-04T11:38:53;101017.91;;;31.67;24.85
7050;BME280;22263;52.260;10.548;2023-06-04T11:41:35;101022.78;;;31.55;25.28
7050;BME280;22263;52.260;10.548;2023-06-04T11:44:06;101028.00;;;29.91;26.09
7050;BME280;22263;52.260;10.548;2023-06-04T11:46:40;101023.13;;;29.56;26.54
7050;BME280;22263;52.260;10.548;2023-06-04T11:49:12;101021.28;;;30.60;25.26
7050;BME280;22263;52.260;10.548;2023-06-04T11:51:47;101018.78;;;31.04;25.29
7050;BME280;22263;52.260;10.548;2023-06-04T11:54:21;101016.69;;;30.22;25.89
7050;BME280;22263;52.260;10.548;2023-06-04T11:56:51;101028.47;;;28.84;27.38
7050;BME280;22263;52.260;10.548;2023-06-04T11:59:21;101015.03;;;30.36;26.13
7050;BME280;22263;52.260;10.548;2023-06-04T12:01:51;101020.13;;;29.65;26.89
7050;BME280;22263;52.260;10.548;2023-06-04T12:04:21;101023.56;;;28.85;27.16
7050;BME280;22263;52.260;10.548;2023-06-04T12:06:51;101013.56;;;29.79;27.37
7050;BME280;22263;52.260;10.548;2023-06-04T12:09:28;101020.16;;;30.06;26.28
7050;BME280;22263;52.260;10.548;2023-06-04T12:11:58;101022.28;;;30.37;25.78
7050;BME280;22263;52.260;10.548;2023-06-04T12:14:30;101016.72;;;31.47;25.04
7050;BME280;22263;52.260;10.548;2023-06-04T12:17:01;101010.78;;;30.25;26.67
7050;BME280;22263;52.260;10.548;2023-06-04T12:19:31;101019.63;;;29.46;26.63
7050;BME280;22263;52.260;10.548;2023-06-04T12:22:02;101012.09;;;29.29;27.17
7050;BME280;22263;52.260;10.548;2023-06-04T12:24:46;101012.09;;;30.82;25.51
7050;BME280;22263;52.260;10.548;2023-06-04T12:27:24;101010.59;;;29.68;26.17
7050;BME280;22263;52.260;10.548;2023-06-04T12:30:00;101012.84;;;28.65;26.75
7050;BME280;22263;52.260;10.548;2023-06-04T12:32:32;101014.03;;;28.88;27.24
7050;BME280;22263;52.260;10.548;2023-06-04T12:35:07;101007.59;;;29.98;26.63
7050;BME280;22263;52.260;10.548;2023-06-04T12:37:47;101003.13;;;31.31;25.49
7050;BME280;22263;52.260;10.548;2023-06-04T12:40:48;101012.38;;;30.06;25.68
7050;BME280;22263;52.260;10.548;2023-06-04T12:43:28;101006.50;;;29.55;26.59
7050;BME280;22263;52.260;10.548;2023-06-04T12:46:20;101007.50;;;30.12;26.04
7050;BME280;22263;52.260;10.548;2023-06-04T12:48:55;101004.53;;;30.01;26.95
7050;BME280;22263;52.260;10.548;2023-06-04T12:51:29;101000.19;;;30.83;25.70
7050;BME280;22263;52.260;10.548;2023-06-04T12:54:09;101005.94;;;31.68;25.25
7050;BME280;22263;52.260;10.548;2023-06-04T12:56:52;101004.06;;;30.08;26.13
7050;BME280;22263;52.260;10.548;2023-06-04T12:59:23;101005.59;;;28.79;27.12
7050;BME280;22263;52.260;10.548;2023-06-04T13:01:55;101008.22;;;29.87;25.95
7050;BME280;22263;52.260;10.548;2023-06-04T13:04:27;100995.66;;;30.19;25.88
7050;BME280;22263;52.260;10.548;2023-06-04T13:07:08;101008.41;;;28.64;26.80
7050;BME280;22263;52.260;10.548;2023-06-04T13:09:38;101011.88;;;27.20;28.36
7050;BME280;22263;52.260;10.548;2023-06-04T13:12:11;101007.56;;;27.66;28.21